Home / US / Tennessee / Johnson

Johnson, TN Weather

Current Report for Thu Jan 18 2018

As of 4:53 AM CST THU JAN 18 2018

4°F -16°cJohnson weather conditions : Fair

Fair

Barometer: 30.43 inHg. steady

Humidity: 91%

Wind: N. 0mph

Wind Gust: 2mph

Wind Chill: 4°F

Dew Point: 2°F rising

Visibility: 9.00mi.

Sunrise: 6:39 AM

Sunset: 4:39 PM

Moon Phase: Waxing Crescent Moon

Daily and Hourly Summary

Loading Johnson TN Summary and Hourly data for today, tonight and tomorrow...
Forecast for Johnson, TN:
(Forecast based on TAF for )
0633 AM CST THU JAN 18 2018
  
MORNING AFTERNOON EVENING OVERNIGHT MORNING
Partly Cloudy Partly Cloudy Partly Cloudy Partly Cloudy Clear
Partly
Cloudy
Partly
Cloudy
Partly
Cloudy
Partly
Cloudy
Clear
Original Encoded TAF:
Dated: 0633 AM CST THU JAN 18 2018
2018/01/18 12:33
TAF KTRI 181130Z 1812/1912 24003KT P6SM SCT250 
     FM190000 00000KT P6SM SKC

Temperatures Today (View More Charts)

Johnson, TN updates by locals

Write your own report, forecast, or traffic update:

Please note by clicking on "Post" you acknowledge that you have read the Terms of Service and the report and/or forecast you are posting is in compliance with such terms. Be respectful. An inappropriate post will be removed by a moderator. If you are not finding the information you want, please be sure to note the navigation tabs just above the breadcrumbs, which are links to other data relating to this city.